Time;durP1;ratioP1;P1;durP2;ratioP2;P2;SDS_P1;SDS_P2;PMS_P1;PMS_P2;Temp;Humidity;BMP_temperature;BMP_pressure;BME280_temperature;BME280_humidity;BME280_pressure;Samples;Min_cycle;Max_cycle;Signal;HPM_P1;HPM_P2
2022/10/22 00:00:09;;;;;;;3.60;2.70;;;16.00;99.90;;;;;;1925118;73;21115;-84
2022/10/22 00:03:00;;;;;;;4.17;2.00;;;16.00;99.90;;;;;;1936139;73;21633;-85
2022/10/22 00:05:52;;;;;;;4.92;3.00;;;16.00;99.90;;;;;;1928582;73;21056;-85
2022/10/22 00:08:43;;;;;;;4.92;2.40;;;16.10;99.90;;;;;;1928076;73;21571;-83
2022/10/22 00:11:35;;;;;;;5.10;2.22;;;16.10;99.90;;;;;;1922051;73;21177;-84
2022/10/22 00:14:26;;;;;;;5.08;1.80;;;16.10;99.90;;;;;;1918447;73;21064;-84
2022/10/22 00:17:17;;;;;;;2.55;1.30;;;16.10;99.90;;;;;;1918937;73;21135;-84
2022/10/22 00:20:10;;;;;;;2.80;1.30;;;16.00;99.90;;;;;;1924621;73;21160;-83
2022/10/22 00:23:02;;;;;;;3.30;1.47;;;16.00;99.90;;;;;;1923744;73;21138;-84
2022/10/22 00:28:34;;;;;;;2.05;1.22;;;16.00;99.90;;;;;;1934913;72;22923;-83
2022/10/22 00:31:25;;;;;;;3.65;1.65;;;16.10;99.90;;;;;;1903533;73;21051;-83
2022/10/22 00:34:17;;;;;;;3.20;1.32;;;16.10;99.90;;;;;;1903159;73;21518;-83
2022/10/22 00:37:08;;;;;;;2.42;1.37;;;16.10;99.90;;;;;;1893170;75;21549;-83
2022/10/22 00:40:00;;;;;;;2.20;1.20;;;16.10;99.90;;;;;;1900984;75;21744;-84
2022/10/22 00:42:51;;;;;;;1.32;0.70;;;16.10;99.90;;;;;;1854930;76;21096;-84
2022/10/22 00:45:43;;;;;;;1.05;0.57;;;16.00;99.90;;;;;;1904639;73;21087;-84
2022/10/22 00:48:34;;;;;;;0.95;0.47;;;16.00;99.90;;;;;;1897036;75;21152;-83
2022/10/22 00:51:28;;;;;;;2.22;0.50;;;16.10;99.90;;;;;;1904373;73;21141;-85
2022/10/22 00:54:20;;;;;;;1.55;0.72;;;16.20;99.90;;;;;;1897715;73;21192;-85
2022/10/22 00:57:11;;;;;;;1.40;0.60;;;16.20;99.90;;;;;;1894577;75;21098;-83
2022/10/22 01:00:02;;;;;;;1.67;0.80;;;16.20;99.90;;;;;;1908235;75;21203;-84
2022/10/22 01:02:55;;;;;;;2.33;1.02;;;16.20;99.90;;;;;;1903369;75;21108;-84
2022/10/22 01:05:49;;;;;;;2.67;1.10;;;16.20;99.90;;;;;;1890244;75;21101;-84
2022/10/22 01:08:44;;;;;;;4.47;1.40;;;16.20;99.90;;;;;;1897310;73;21092;-84
2022/10/22 01:14:24;;;;;;;2.27;0.80;;;16.20;99.90;;;;;;1910138;72;22226;-83
2022/10/22 01:17:18;;;;;;;1.98;0.98;;;16.20;99.90;;;;;;1892371;75;21178;-83
2022/10/22 01:23:01;;;;;;;2.42;1.00;;;16.30;99.90;;;;;;1930608;72;22287;-86
2022/10/22 01:25:56;;;;;;;2.90;1.27;;;16.30;99.90;;;;;;1899100;75;21092;-83
2022/10/22 01:29:02;;;;;;;3.12;1.50;;;16.30;99.90;;;;;;1904089;75;21106;-84
2022/10/22 01:34:39;;;;;;;2.15;1.12;;;16.20;99.90;;;;;;1933557;72;22174;-83
2022/10/22 01:37:32;;;;;;;2.85;1.27;;;16.20;99.90;;;;;;1904542;73;21209;-84
2022/10/22 01:40:25;;;;;;;2.30;1.20;;;16.20;99.90;;;;;;1908851;74;21075;-84
2022/10/22 01:43:16;;;;;;;2.60;0.80;;;16.10;99.90;;;;;;1903370;73;21166;-84
2022/10/22 01:46:09;;;;;;;2.83;0.90;;;16.10;99.90;;;;;;1903608;73;21118;-84
2022/10/22 01:49:11;;;;;;;1.52;0.78;;;16.10;99.90;;;;;;1911651;74;21472;-84
2022/10/22 01:54:45;;;;;;;1.60;1.10;;;16.20;99.90;;;;;;1947668;72;22087;-85
2022/10/22 02:00:20;;;;;;;1.55;1.00;;;16.20;99.90;;;;;;1945506;72;22115;-84
2022/10/22 02:03:15;;;;;;;2.98;1.30;;;16.20;99.90;;;;;;1920075;73;21181;-84
2022/10/22 02:06:11;;;;;;;1.52;1.07;;;16.20;99.90;;;;;;1920919;73;22001;-84
2022/10/22 02:09:05;;;;;;;2.15;0.88;;;16.10;99.90;;;;;;1922996;73;21965;-84
2022/10/22 02:11:58;;;;;;;1.47;0.70;;;16.10;99.90;;;;;;1916863;73;21044;-84
2022/10/22 02:14:50;;;;;;;1.45;1.02;;;16.10;99.90;;;;;;1924048;73;21593;-83
2022/10/22 02:17:45;;;;;;;2.47;1.12;;;16.00;99.90;;;;;;1922709;72;21104;-84
2022/10/22 02:20:38;;;;;;;2.02;0.82;;;16.00;99.90;;;;;;1919423;73;21692;-84
2022/10/22 02:23:30;;;;;;;1.80;0.90;;;15.90;99.90;;;;;;1920701;73;21158;-84
2022/10/22 02:26:24;;;;;;;2.15;1.20;;;16.00;99.90;;;;;;1922658;73;21091;-84
2022/10/22 02:29:19;;;;;;;3.08;0.93;;;16.00;99.90;;;;;;1918988;73;21046;-83
2022/10/22 02:32:13;;;;;;;2.05;1.05;;;16.00;99.90;;;;;;1921240;73;21095;-84
2022/10/22 02:35:06;;;;;;;0.85;0.70;;;16.00;99.90;;;;;;1920622;73;21101;-84
2022/10/22 02:37:59;;;;;;;2.22;0.80;;;15.90;99.90;;;;;;1922405;73;21055;-84
2022/10/22 02:40:50;;;;;;;1.10;1.00;;;15.90;99.90;;;;;;1917311;73;21561;-84
2022/10/22 02:43:44;;;;;;;1.32;1.10;;;15.90;99.90;;;;;;1918362;73;21177;-84
2022/10/22 02:46:36;;;;;;;2.08;1.20;;;15.90;99.90;;;;;;1919254;73;21172;-84
2022/10/22 02:49:27;;;;;;;2.25;1.20;;;15.90;99.90;;;;;;1919372;73;21512;-84
2022/10/22 02:52:19;;;;;;;1.77;1.20;;;16.00;99.90;;;;;;1920147;73;21096;-83
2022/10/22 02:55:10;;;;;;;1.70;1.25;;;16.00;99.90;;;;;;1916632;73;21090;-83
2022/10/22 02:58:01;;;;;;;1.40;1.10;;;16.00;99.90;;;;;;1919744;73;21134;-84
2022/10/22 03:00:53;;;;;;;1.98;1.30;;;16.10;99.90;;;;;;1907324;73;21118;-84
2022/10/22 03:03:45;;;;;;;1.95;0.78;;;16.10;99.90;;;;;;1919036;73;21099;-84
2022/10/22 03:06:36;;;;;;;1.35;0.90;;;16.10;99.90;;;;;;1923459;73;21143;-84
2022/10/22 03:09:28;;;;;;;2.10;0.90;;;16.00;99.90;;;;;;1921537;73;21048;-83
2022/10/22 03:12:19;;;;;;;1.65;0.80;;;16.00;99.90;;;;;;1920505;73;21479;-84
2022/10/22 03:15:11;;;;;;;1.80;0.93;;;16.00;99.90;;;;;;1922158;73;21086;-83
2022/10/22 03:21:14;;;;;;;1.75;0.90;;;16.10;99.90;;;;;;1971498;71;22270;-83
2022/10/22 03:24:09;;;;;;;1.05;0.70;;;16.10;99.90;;;;;;1934161;73;21160;-84
2022/10/22 03:29:42;;;;;;;2.15;0.90;;;16.10;99.90;;;;;;1942337;72;22231;-83
2022/10/22 03:32:33;;;;;;;1.15;0.72;;;16.00;99.90;;;;;;1899007;75;21135;-84
2022/10/22 03:35:25;;;;;;;1.67;0.70;;;16.00;99.90;;;;;;1897180;75;21108;-84
2022/10/22 03:38:17;;;;;;;1.52;0.55;;;16.00;99.90;;;;;;1904681;75;21055;-84
2022/10/22 03:41:09;;;;;;;0.98;0.55;;;16.00;99.90;;;;;;1901248;75;21076;-83
2022/10/22 03:44:02;;;;;;;1.35;0.60;;;16.00;99.90;;;;;;1903084;75;21166;-83
2022/10/22 03:49:34;;;;;;;1.92;0.80;;;15.90;99.90;;;;;;1940802;72;22340;-85
2022/10/22 03:52:25;;;;;;;0.70;0.60;;;15.90;99.90;;;;;;1917399;73;21174;-85
2022/10/22 03:55:17;;;;;;;1.00;0.60;;;15.90;99.90;;;;;;1917272;73;21085;-85
2022/10/22 03:58:09;;;;;;;1.92;0.70;;;15.90;99.90;;;;;;1923811;73;21172;-84
2022/10/22 04:01:05;;;;;;;1.32;0.62;;;15.90;99.90;;;;;;1916451;73;21244;-84
2022/10/22 04:03:58;;;;;;;2.08;0.60;;;15.90;99.90;;;;;;1919172;73;21533;-84
2022/10/22 04:06:49;;;;;;;1.98;0.82;;;15.80;99.90;;;;;;1917266;73;21072;-84
2022/10/22 04:09:41;;;;;;;1.55;0.88;;;15.80;99.90;;;;;;1917475;73;21100;-83
2022/10/22 04:12:32;;;;;;;2.10;0.70;;;15.80;99.90;;;;;;1917689;73;21229;-84
2022/10/22 04:15:25;;;;;;;1.55;0.60;;;15.80;99.90;;;;;;1920137;73;21138;-84
2022/10/22 04:18:16;;;;;;;0.95;0.50;;;15.90;99.90;;;;;;1917349;73;21078;-83
2022/10/22 04:21:08;;;;;;;1.27;0.75;;;15.80;99.90;;;;;;1917255;73;21092;-83
2022/10/22 04:24:00;;;;;;;1.70;0.90;;;15.80;99.90;;;;;;1917117;73;21179;-86
2022/10/22 04:26:52;;;;;;;1.98;0.90;;;15.80;99.90;;;;;;1919859;73;21104;-84
2022/10/22 04:29:44;;;;;;;1.32;0.80;;;15.80;99.90;;;;;;1917651;73;21164;-83
2022/10/22 04:35:16;;;;;;;0.98;0.80;;;15.80;99.90;;;;;;1941415;72;22608;-84
2022/10/22 04:38:08;;;;;;;1.12;0.70;;;15.80;99.90;;;;;;1897103;75;21223;-84
2022/10/22 04:41:00;;;;;;;0.70;0.57;;;15.80;99.90;;;;;;1900464;75;21130;-83
2022/10/22 04:43:53;;;;;;;1.45;0.80;;;15.80;99.90;;;;;;1898938;74;21183;-84
2022/10/22 04:46:44;;;;;;;1.37;0.70;;;15.80;99.90;;;;;;1903153;74;21572;-83
2022/10/22 04:49:36;;;;;;;1.67;0.70;;;15.80;99.90;;;;;;1901142;75;21063;-84
2022/10/22 04:52:27;;;;;;;2.72;0.88;;;15.70;99.90;;;;;;1898731;75;21114;-84
2022/10/22 04:55:19;;;;;;;0.88;0.70;;;15.70;99.90;;;;;;1895685;75;21071;-84
2022/10/22 04:58:13;;;;;;;1.50;1.02;;;15.70;99.90;;;;;;1887553;75;21135;-84
2022/10/22 05:01:11;;;;;;;1.87;0.85;;;15.70;99.90;;;;;;1890720;75;21187;-84
2022/10/22 05:04:04;;;;;;;1.30;0.90;;;15.70;99.90;;;;;;1896297;75;21154;-83
2022/10/22 05:06:56;;;;;;;1.32;1.02;;;15.60;99.90;;;;;;1894990;75;21058;-84
2022/10/22 05:09:47;;;;;;;2.47;0.90;;;15.60;99.90;;;;;;1894120;74;21062;-84
2022/10/22 05:12:38;;;;;;;2.22;1.02;;;15.50;99.90;;;;;;1894639;75;21110;-84
2022/10/22 05:15:30;;;;;;;1.65;1.15;;;15.50;99.90;;;;;;1896222;74;21162;-83
2022/10/22 05:18:21;;;;;;;3.30;1.57;;;15.50;99.90;;;;;;1888402;75;21184;-85
2022/10/22 05:21:14;;;;;;;2.80;1.20;;;15.60;99.90;;;;;;1892880;75;21113;-84
2022/10/22 05:24:07;;;;;;;1.80;1.40;;;15.50;99.90;;;;;;1899314;75;21233;-84
2022/10/22 05:27:00;;;;;;;2.33;1.20;;;15.50;99.90;;;;;;1887899;75;21192;-84
2022/10/22 05:29:51;;;;;;;2.05;1.40;;;15.40;99.90;;;;;;1894069;74;21162;-84
2022/10/22 05:32:43;;;;;;;2.25;1.20;;;15.40;99.90;;;;;;1895780;75;21078;-83
2022/10/22 05:35:34;;;;;;;1.55;1.00;;;15.40;99.90;;;;;;1895996;75;21075;-84
2022/10/22 05:38:26;;;;;;;1.40;1.00;;;15.40;99.90;;;;;;1886298;75;21151;-84
2022/10/22 05:41:19;;;;;;;1.57;0.82;;;15.40;99.90;;;;;;1885180;75;21212;-85
2022/10/22 05:44:13;;;;;;;1.62;1.00;;;15.30;99.90;;;;;;1884854;75;21048;-84
2022/10/22 05:49:44;;;;;;;2.37;1.10;;;15.40;99.90;;;;;;1947687;72;22249;-85
2022/10/22 05:55:16;;;;;;;2.55;1.10;;;15.40;99.90;;;;;;1926513;72;22114;-83
2022/10/22 05:58:08;;;;;;;3.12;1.32;;;15.40;99.90;;;;;;1885716;75;21095;-86
2022/10/22 06:01:03;;;;;;;2.10;1.30;;;15.40;99.90;;;;;;1887755;75;21138;-84
2022/10/22 06:03:57;;;;;;;1.82;1.27;;;15.40;99.90;;;;;;1887714;75;21051;-84
2022/10/22 06:06:50;;;;;;;2.08;1.25;;;15.40;99.90;;;;;;1872080;75;21067;-85
2022/10/22 06:09:41;;;;;;;2.72;1.57;;;15.40;99.90;;;;;;1886161;75;21594;-85
2022/10/22 06:12:33;;;;;;;2.72;1.40;;;15.40;99.90;;;;;;1896856;75;21154;-85
2022/10/22 06:15:24;;;;;;;1.90;1.40;;;15.40;99.90;;;;;;1889567;75;21157;-84
2022/10/22 06:18:15;;;;;;;3.70;1.20;;;15.40;99.90;;;;;;1884042;75;21095;-83
2022/10/22 06:21:08;;;;;;;2.47;1.27;;;15.40;99.90;;;;;;1886538;75;21115;-85
2022/10/22 06:24:01;;;;;;;1.95;1.47;;;15.50;99.90;;;;;;1893737;75;21492;-89
2022/10/22 06:26:52;;;;;;;2.40;1.40;;;15.40;99.90;;;;;;1892652;75;21040;-90
2022/10/22 06:29:43;;;;;;;2.72;1.70;;;15.40;99.90;;;;;;1890856;75;21124;-89
2022/10/22 06:35:16;;;;;;;4.35;2.05;;;15.40;99.90;;;;;;1947568;72;22211;-90
2022/10/22 06:38:07;;;;;;;4.00;1.92;;;15.40;99.90;;;;;;1923554;73;21102;-87
2022/10/22 06:41:03;;;;;;;1.75;1.47;;;15.40;99.90;;;;;;1918964;73;21127;-90
2022/10/22 06:43:56;;;;;;;2.40;1.50;;;15.40;99.90;;;;;;1923633;72;21050;-88
2022/10/22 06:46:51;;;;;;;1.85;1.40;;;15.40;99.90;;;;;;1921445;73;21072;-88
2022/10/22 06:49:42;;;;;;;2.62;1.65;;;15.40;99.90;;;;;;1885925;75;21118;-88
2022/10/22 06:55:42;;;;;;;3.52;2.40;;;15.40;99.90;;;;;;1973825;71;22180;-88
2022/10/22 07:01:18;;;;;;;8.20;4.20;;;15.40;99.90;;;;;;1938077;72;22158;-88
2022/10/22 07:04:10;;;;;;;4.20;2.67;;;15.40;99.90;;;;;;1898728;75;21127;-89
2022/10/22 07:09:40;;;;;;;3.35;2.58;;;15.40;99.90;;;;;;1946735;72;22205;-88
2022/10/22 07:12:33;;;;;;;2.62;2.17;;;15.40;99.90;;;;;;1925765;73;21704;-88
2022/10/22 07:15:24;;;;;;;2.90;2.12;;;15.40;99.90;;;;;;1917511;73;21173;-85
2022/10/22 07:18:16;;;;;;;4.95;2.00;;;15.40;99.90;;;;;;1919326;73;21638;-83
2022/10/22 07:21:08;;;;;;;2.83;1.60;;;15.40;99.90;;;;;;1920819;73;21209;-88
2022/10/22 07:23:59;;;;;;;2.17;1.42;;;15.40;99.90;;;;;;1923133;73;21710;-86
2022/10/22 07:26:50;;;;;;;2.15;1.52;;;15.40;99.90;;;;;;1920721;73;21117;-86
2022/10/22 07:29:42;;;;;;;1.52;1.17;;;15.40;99.90;;;;;;1925188;73;21106;-86
2022/10/22 07:35:11;;;;;;;3.47;1.40;;;15.40;99.90;;;;;;1942086;72;22264;-88
2022/10/22 07:38:03;;;;;;;3.05;1.47;;;15.40;99.90;;;;;;1908620;75;21122;-87
2022/10/22 07:40:55;;;;;;;2.70;1.40;;;15.50;99.90;;;;;;1914412;75;21095;-86
2022/10/22 07:43:46;;;;;;;3.50;1.50;;;15.50;99.90;;;;;;1917724;74;21067;-87
2022/10/22 07:46:37;;;;;;;2.52;1.70;;;15.50;99.90;;;;;;1902942;75;21097;-87
2022/10/22 07:49:28;;;;;;;4.22;1.80;;;15.50;99.90;;;;;;1916139;75;21098;-87
2022/10/22 07:52:19;;;;;;;1.47;1.30;;;15.60;99.90;;;;;;1895477;75;21928;-86
2022/10/22 07:55:12;;;;;;;2.77;1.10;;;15.60;99.90;;;;;;1900821;75;21102;-89
2022/10/22 08:00:42;;;;;;;2.20;1.50;;;15.70;99.90;;;;;;1937524;72;22246;-87
2022/10/22 08:03:33;;;;;;;2.42;1.85;;;15.70;99.90;;;;;;1908850;75;21179;-87
2022/10/22 08:06:24;;;;;;;2.15;1.47;;;15.70;99.90;;;;;;1907416;75;21490;-88
2022/10/22 08:09:15;;;;;;;2.80;1.82;;;15.80;99.90;;;;;;1910904;74;21058;-88
2022/10/22 08:14:46;;;;;;;2.85;1.90;;;15.90;99.90;;;;;;1942170;72;22229;-87
2022/10/22 08:17:38;;;;;;;2.85;2.37;;;16.10;99.90;;;;;;1901858;75;21122;-89
2022/10/22 08:20:30;;;;;;;3.42;2.30;;;16.10;99.90;;;;;;1916364;74;21043;-88
2022/10/22 08:23:21;;;;;;;4.22;2.15;;;16.30;99.90;;;;;;1896784;75;21090;-88
2022/10/22 08:26:14;;;;;;;3.15;2.00;;;16.30;99.90;;;;;;1901456;75;21161;-87
2022/10/22 08:29:06;;;;;;;4.95;2.58;;;16.40;99.90;;;;;;1906145;75;21091;-87
2022/10/22 08:31:57;;;;;;;2.17;1.72;;;16.40;99.90;;;;;;1899607;75;21121;-87
2022/10/22 08:34:48;;;;;;;2.65;1.57;;;16.40;99.90;;;;;;1896296;75;21220;-87
2022/10/22 08:37:40;;;;;;;2.37;1.80;;;16.30;99.90;;;;;;1891789;75;21109;-86
2022/10/22 08:40:35;;;;;;;2.12;1.00;;;16.30;99.90;;;;;;1904086;73;21136;-87
2022/10/22 08:43:39;;;;;;;2.92;2.15;;;16.30;99.90;;;;;;1897564;73;21194;-87
2022/10/22 08:46:46;;;;;;;3.40;1.70;;;16.30;99.90;;;;;;1911232;75;21051;-87
2022/10/22 08:49:40;;;;;;;3.15;1.60;;;16.20;99.90;;;;;;1911292;75;21177;-86
2022/10/22 08:52:34;;;;;;;2.40;1.87;;;16.20;99.90;;;;;;1901609;75;21125;-87
2022/10/22 08:55:27;;;;;;;3.70;1.82;;;16.30;99.90;;;;;;1894571;75;21145;-87
2022/10/22 08:58:22;;;;;;;3.08;1.60;;;16.40;99.90;;;;;;1891893;73;21170;-87
2022/10/22 09:01:16;;;;;;;2.92;1.60;;;16.50;99.90;;;;;;1884890;75;21062;-87
2022/10/22 09:04:11;;;;;;;1.92;1.15;;;16.50;99.90;;;;;;1890123;75;21228;-87
2022/10/22 09:09:45;;;;;;;2.58;1.52;;;16.60;99.90;;;;;;1942392;72;22240;-87
2022/10/22 09:15:17;;;;;;;2.60;1.87;;;16.80;99.90;;;;;;1944098;72;22205;-87
2022/10/22 09:18:13;;;;;;;1.92;1.57;;;16.80;99.90;;;;;;1894017;75;21099;-87
2022/10/22 09:21:09;;;;;;;3.42;1.95;;;16.90;99.90;;;;;;1883496;75;21208;-87
2022/10/22 09:24:06;;;;;;;2.85;2.08;;;16.90;99.90;;;;;;1896286;74;21145;-87
2022/10/22 09:26:57;;;;;;;3.33;1.65;;;17.00;99.90;;;;;;1912710;75;21101;-87
2022/10/22 09:29:49;;;;;;;4.42;1.30;;;17.10;99.90;;;;;;1886473;75;21102;-87
2022/10/22 09:35:22;;;;;;;5.67;2.52;;;17.10;99.90;;;;;;1945692;72;22216;-86
2022/10/22 09:38:16;;;;;;;4.70;2.55;;;17.20;99.90;;;;;;1927059;73;21106;-87
2022/10/22 09:41:09;;;;;;;2.70;1.37;;;17.30;99.90;;;;;;1917420;75;21643;-86
2022/10/22 09:44:00;;;;;;;2.85;0.90;;;17.30;99.90;;;;;;1925531;73;21142;-87
2022/10/22 09:46:52;;;;;;;2.65;0.75;;;17.40;99.90;;;;;;1927589;73;21173;-87
2022/10/22 09:52:26;;;;;;;1.12;0.70;;;17.50;99.90;;;;;;1936818;72;22218;-88
2022/10/22 09:55:19;;;;;;;2.15;0.80;;;17.60;99.90;;;;;;1898040;75;21124;-87
2022/10/22 09:58:13;;;;;;;2.77;0.90;;;17.60;99.90;;;;;;1885736;75;21562;-87
2022/10/22 10:01:04;;;;;;;2.12;0.50;;;17.70;99.90;;;;;;1904096;75;21094;-87
2022/10/22 10:03:58;;;;;;;2.12;0.68;;;17.70;99.90;;;;;;1902024;75;21095;-87
2022/10/22 10:06:51;;;;;;;1.82;0.70;;;17.80;99.90;;;;;;1895683;75;21128;-87
2022/10/22 10:09:43;;;;;;;2.22;0.90;;;17.90;99.90;;;;;;1907175;75;21118;-88
2022/10/22 10:15:19;;;;;;;1.62;0.80;;;18.00;99.90;;;;;;1944706;72;22650;-89
2022/10/22 10:18:16;;;;;;;5.30;1.07;;;18.10;99.90;;;;;;1922820;73;21093;-89
2022/10/22 10:23:53;;;;;;;1.40;0.90;;;18.20;99.90;;;;;;1952606;72;22127;-90
2022/10/22 10:26:48;;;;;;;2.50;0.98;;;18.30;99.90;;;;;;1911195;75;21170;-88
2022/10/22 10:29:44;;;;;;;2.80;0.80;;;18.40;99.90;;;;;;1906206;75;21170;-88
2022/10/22 10:33:18;;;;;;;1.52;0.88;;;18.40;99.90;;;;;;1900776;75;21047;-87
2022/10/22 10:36:14;;;;;;;2.95;1.62;;;18.50;99.90;;;;;;1899837;75;21127;-87
2022/10/22 10:39:08;;;;;;;1.55;1.00;;;18.60;99.90;;;;;;1892395;75;21042;-87
2022/10/22 10:44:58;;;;;;;2.33;1.10;;;18.70;99.90;;;;;;1946197;72;22166;-87
2022/10/22 10:50:59;;;;;;;2.00;1.30;;;18.80;99.90;;;;;;1925741;72;28128;-89
2022/10/22 10:53:58;;;;;;;3.95;1.47;;;19.10;99.90;;;;;;1898641;75;21150;-89
2022/10/22 10:56:52;;;;;;;5.08;3.65;;;19.10;99.90;;;;;;1894623;75;21043;-87
2022/10/22 10:59:53;;;;;;;2.37;1.40;;;19.10;99.90;;;;;;1897741;75;21117;-88
2022/10/22 11:06:12;;;;;;;1.87;0.80;;;19.20;99.90;;;;;;1921639;72;28423;-87
2022/10/22 11:09:06;;;;;;;2.60;0.88;;;19.40;99.90;;;;;;1912658;75;21115;-87
2022/10/22 11:12:00;;;;;;;1.72;0.50;;;19.50;99.90;;;;;;1890268;75;21530;-88
2022/10/22 11:14:57;;;;;;;2.12;0.75;;;19.40;99.90;;;;;;1908181;75;21555;-85
2022/10/22 11:20:32;;;;;;;1.90;1.00;;;19.50;99.90;;;;;;1934043;72;22811;-84
2022/10/22 11:23:28;;;;;;;1.52;1.32;;;19.60;99.90;;;;;;1896936;74;21071;-84
2022/10/22 11:26:25;;;;;;;2.60;1.57;;;19.70;99.90;;;;;;1884590;75;21388;-85
2022/10/22 11:29:20;;;;;;;1.70;1.00;;;19.70;99.90;;;;;;1906030;75;21765;-84
2022/10/22 11:34:58;;;;;;;1.55;0.90;;;19.70;99.90;;;;;;1941215;72;22235;-79
2022/10/22 11:37:50;;;;;;;1.42;0.82;;;19.80;99.90;;;;;;1885072;74;21124;-80
2022/10/22 11:40:45;;;;;;;1.12;0.70;;;19.90;99.90;;;;;;1902583;75;21127;-80
2022/10/22 11:43:53;;;;;;;4.17;0.95;;;19.90;99.90;;;;;;1899896;75;21183;-80
2022/10/22 11:46:55;;;;;;;3.30;0.75;;;19.90;99.90;;;;;;1889696;75;21128;-80
2022/10/22 11:49:53;;;;;;;4.83;1.50;;;19.90;99.90;;;;;;1906346;75;21095;-80
2022/10/22 11:52:48;;;;;;;6.35;1.67;;;19.90;99.90;;;;;;1901289;75;21160;-85
2022/10/22 11:55:48;;;;;;;8.65;1.82;;;19.90;99.90;;;;;;1904897;75;21148;-86
2022/10/22 11:58:43;;;;;;;4.40;1.35;;;20.00;99.90;;;;;;1899299;75;21263;-86
2022/10/22 12:01:45;;;;;;;2.30;0.90;;;20.10;99.90;;;;;;1886601;75;21121;-86
2022/10/22 12:04:42;;;;;;;3.70;0.90;;;20.10;99.90;;;;;;1891818;75;21058;-85
2022/10/22 12:10:19;;;;;;;2.15;1.12;;;20.30;99.90;;;;;;1951802;72;22091;-87
2022/10/22 12:15:54;;;;;;;1.37;0.45;;;20.40;99.90;;;;;;1946318;72;22216;-87
2022/10/22 12:18:46;;;;;;;3.17;0.80;;;20.40;99.90;;;;;;1899023;75;21130;-87
2022/10/22 12:21:39;;;;;;;2.10;0.80;;;20.50;99.90;;;;;;1886604;75;21140;-86
2022/10/22 12:24:35;;;;;;;2.77;1.25;;;20.60;99.90;;;;;;1903514;75;21056;-87
2022/10/22 12:27:29;;;;;;;2.02;0.60;;;20.70;99.90;;;;;;1902400;75;21164;-87
2022/10/22 12:30:24;;;;;;;1.65;0.80;;;20.70;99.90;;;;;;1895385;75;21097;-85
2022/10/22 12:36:02;;;;;;;1.45;0.65;;;20.80;99.90;;;;;;1943765;72;22110;-87
2022/10/22 12:38:51;;;;;;;2.17;1.40;;;20.90;99.90;;;;;;1902529;73;21121;-86
2022/10/22 12:41:43;;;;;;;3.33;0.75;;;20.90;99.90;;;;;;1929976;74;21114;-87
2022/10/22 12:44:34;;;;;;;2.42;0.95;;;21.00;99.90;;;;;;1894808;74;21142;-87
2022/10/22 12:47:26;;;;;;;3.42;0.60;;;21.00;99.90;;;;;;1901803;74;21167;-85
2022/10/22 12:50:23;;;;;;;1.42;0.60;;;21.00;99.90;;;;;;1910172;74;21110;-87
2022/10/22 12:53:17;;;;;;;1.82;0.60;;;21.10;99.90;;;;;;1873361;75;21065;-86
2022/10/22 12:56:12;;;;;;;1.05;0.70;;;21.20;99.90;;;;;;1901560;75;21192;-86
2022/10/22 12:59:07;;;;;;;1.00;0.53;;;21.20;99.90;;;;;;1889876;75;21096;-85
2022/10/22 13:01:59;;;;;;;1.10;0.57;;;21.20;99.90;;;;;;1914205;74;21114;-86
2022/10/22 13:10:51;;;;;;;0.75;0.57;;;21.30;99.90;;;;;;1937172;72;22169;-86
2022/10/22 13:13:45;;;;;;;0.80;0.40;;;21.30;99.90;;;;;;1883332;75;21102;-86
2022/10/22 13:16:39;;;;;;;1.52;0.90;;;21.40;99.90;;;;;;1899389;75;21088;-86
2022/10/22 13:19:48;;;;;;;0.50;0.37;;;21.40;99.90;;;;;;1917281;75;21103;-86
2022/10/22 13:22:41;;;;;;;0.42;0.28;;;21.40;99.90;;;;;;1904968;75;21161;-86
2022/10/22 13:25:34;;;;;;;2.08;0.50;;;21.50;99.90;;;;;;1902513;75;21151;-86
2022/10/22 13:28:26;;;;;;;1.80;0.50;;;21.50;99.90;;;;;;1907622;74;21106;-86
2022/10/22 13:31:20;;;;;;;5.35;1.12;;;21.50;99.90;;;;;;1884127;75;21159;-86
2022/10/22 13:36:56;;;;;;;1.20;0.60;;;21.60;99.90;;;;;;1935999;72;22122;-87
2022/10/22 13:39:47;;;;;;;1.00;0.60;;;21.70;99.90;;;;;;1913728;75;21144;-86
2022/10/22 13:42:38;;;;;;;4.05;0.60;;;21.70;99.90;;;;;;1905231;74;21135;-86
2022/10/22 13:45:30;;;;;;;1.30;0.70;;;21.70;99.90;;;;;;1898473;75;21097;-86
2022/10/22 13:48:23;;;;;;;2.45;1.52;;;21.80;99.90;;;;;;1907019;75;21221;-87
2022/10/22 13:51:18;;;;;;;2.98;0.82;;;21.80;99.90;;;;;;1888108;75;21097;-86
2022/10/22 13:54:15;;;;;;;0.70;0.50;;;21.90;99.90;;;;;;1915586;74;21221;-86
2022/10/22 14:00:21;;;;;;;1.85;0.95;;;21.90;99.90;;;;;;1995279;71;22100;-86
2022/10/22 14:03:14;;;;;;;0.82;0.60;;;22.00;99.90;;;;;;1932709;72;21088;-86
2022/10/22 14:06:10;;;;;;;2.70;0.80;;;22.00;99.90;;;;;;1998339;69;21010;-87
2022/10/22 14:09:04;;;;;;;2.62;0.60;;;22.10;99.90;;;;;;2019611;70;21029;-88
2022/10/22 14:11:56;;;;;;;1.77;0.40;;;22.10;99.90;;;;;;2020189;70;21169;-87
2022/10/22 14:20:17;;;;;;;2.10;0.50;;;22.00;99.90;;;;;;1932252;72;22151;-87
2022/10/22 14:25:53;;;;;;;1.33;0.50;;;22.10;99.90;;;;;;1925606;72;28068;-86
2022/10/22 14:28:45;;;;;;;1.45;0.60;;;22.30;99.90;;;;;;1884154;75;21326;-87
2022/10/22 14:31:38;;;;;;;1.30;0.90;;;22.10;99.90;;;;;;1879099;74;21694;-86
2022/10/22 14:34:29;;;;;;;2.27;1.40;;;22.00;99.90;;;;;;1899419;75;21055;-87
2022/10/22 14:40:02;;;;;;;0.93;0.60;;;22.00;99.90;;;;;;1950875;72;22291;-86
2022/10/22 14:42:54;;;;;;;0.57;0.40;;;22.00;99.90;;;;;;1911317;75;21161;-87
2022/10/22 14:45:45;;;;;;;2.15;0.47;;;22.00;99.90;;;;;;1924141;73;21121;-87
2022/10/22 14:51:16;;;;;;;1.57;0.50;;;22.00;99.90;;;;;;1943636;72;22267;-88
2022/10/22 14:54:08;;;;;;;2.65;0.70;;;22.00;99.90;;;;;;1917406;75;21514;-87
2022/10/22 14:56:59;;;;;;;1.52;1.00;;;22.00;99.90;;;;;;1917654;75;21126;-87
2022/10/22 14:59:53;;;;;;;1.25;0.60;;;22.00;99.90;;;;;;1900613;74;21048;-87
2022/10/22 15:05:24;;;;;;;1.15;0.80;;;21.80;99.90;;;;;;1950668;72;22805;-88
2022/10/22 15:11:03;;;;;;;3.70;0.80;;;21.60;99.90;;;;;;1928128;72;22121;-87
2022/10/22 15:16:33;;;;;;;2.65;1.67;;;21.60;99.90;;;;;;1925043;72;22315;-86
2022/10/22 15:19:24;;;;;;;4.05;2.22;;;21.60;99.90;;;;;;1908325;75;21150;-86
2022/10/22 15:24:54;;;;;;;4.42;3.02;;;21.80;99.90;;;;;;1933436;72;22174;-87
2022/10/22 15:27:46;;;;;;;4.42;1.87;;;21.80;99.90;;;;;;1916073;75;21121;-87
2022/10/22 15:30:39;;;;;;;5.17;2.83;;;21.70;99.90;;;;;;1884935;75;21173;-87
2022/10/22 15:33:30;;;;;;;2.67;1.70;;;21.70;99.90;;;;;;1888625;75;21141;-87
2022/10/22 15:36:21;;;;;;;5.55;2.40;;;21.70;99.90;;;;;;1887662;75;21106;-87
2022/10/22 15:41:53;;;;;;;2.35;1.30;;;21.60;99.90;;;;;;1933695;72;22157;-88
2022/10/22 15:44:44;;;;;;;2.10;0.70;;;21.50;99.90;;;;;;1898114;75;21205;-87
2022/10/22 15:47:35;;;;;;;1.27;0.80;;;21.40;99.90;;;;;;1897303;75;21176;-86
2022/10/22 15:50:27;;;;;;;1.62;0.72;;;21.40;99.90;;;;;;1884386;75;21056;-86
2022/10/22 15:55:58;;;;;;;0.72;0.57;;;21.30;99.90;;;;;;1934064;72;22228;-88
2022/10/22 15:58:50;;;;;;;1.98;0.65;;;21.20;99.90;;;;;;1887771;75;21180;-88
2022/10/22 16:01:42;;;;;;;2.80;0.70;;;21.10;99.90;;;;;;1897753;75;21655;-88
2022/10/22 16:09:59;;;;;;;2.20;1.05;;;20.90;99.90;;;;;;1936022;72;22151;-92
2022/10/22 16:12:50;;;;;;;1.45;1.00;;;20.90;99.90;;;;;;1896447;75;21106;-91
2022/10/22 16:15:41;;;;;;;2.08;1.10;;;20.80;99.90;;;;;;1886109;75;21195;-93
2022/10/22 16:18:33;;;;;;;4.33;3.10;;;20.80;99.90;;;;;;1884846;76;21172;-94
2022/10/22 16:21:24;;;;;;;3.05;1.77;;;20.80;99.90;;;;;;1913139;73;21118;-93
2022/10/22 16:24:17;;;;;;;7.15;1.50;;;20.80;99.90;;;;;;1916856;75;21124;-95
2022/10/22 16:27:08;;;;;;;10.63;2.85;;;20.70;99.90;;;;;;1893036;75;21134;-93
2022/10/22 16:30:00;;;;;;;3.85;1.80;;;20.70;99.90;;;;;;1884962;76;21047;-92
2022/10/22 16:32:51;;;;;;;19.10;9.30;;;20.60;99.90;;;;;;1905273;75;21090;-92
2022/10/22 16:35:43;;;;;;;11.88;6.33;;;20.60;99.90;;;;;;1887661;75;21163;-92
2022/10/22 16:38:35;;;;;;;2.67;1.77;;;20.50;99.90;;;;;;1908635;75;21090;-93
2022/10/22 16:41:33;;;;;;;5.05;3.20;;;20.40;99.90;;;;;;1885242;76;21105;-91
2022/10/22 16:44:21;;;;;;;4.83;2.27;;;20.30;99.90;;;;;;1917542;75;21094;-91
2022/10/22 16:47:12;;;;;;;2.45;1.20;;;20.20;99.90;;;;;;1916372;75;21090;-91
2022/10/22 16:50:04;;;;;;;3.72;1.20;;;20.10;99.90;;;;;;1897535;75;21205;-91
2022/10/22 16:57:40;;;;;;;1.87;1.32;;;20.00;99.90;;;;;;1982050;71;22133;-92
2022/10/22 17:00:32;;;;;;;3.75;1.30;;;19.80;99.90;;;;;;1977112;72;21160;-91
2022/10/22 17:03:24;;;;;;;5.00;1.40;;;19.80;99.90;;;;;;2048145;69;21087;-92
2022/10/22 17:06:17;;;;;;;3.77;1.65;;;19.80;99.90;;;;;;2032550;69;21097;-92
2022/10/22 17:09:09;;;;;;;3.42;1.80;;;19.70;99.90;;;;;;2032503;70;21142;-91
2022/10/22 17:12:01;;;;;;;4.75;3.00;;;19.70;99.90;;;;;;2034695;70;21027;-90
2022/10/22 17:14:52;;;;;;;3.92;2.20;;;19.60;99.90;;;;;;2032450;70;21067;-92
2022/10/22 17:17:47;;;;;;;9.68;1.90;;;19.60;99.90;;;;;;2042977;69;21139;-88
2022/10/22 17:20:39;;;;;;;5.65;1.45;;;19.60;99.90;;;;;;2051621;69;21035;-93